Robert G. Stone, Jr. — WDD4596 — position and weather

sailwx.info

Track history (hours):
 
Tides and Currents Weather Stations Pressure Air Temp Water Temp Dewpoint Dewpoint Depression Visibility Wind Speed Wind Dir Waves Ship Positions

Robert G. Stone, Jr.

Owner: Kirby Inland Marine, LP, Houston, TX. More information available from US FCC via Universal Licensing System and Coast Guard Vessel Documentation Center.

Last reported at 2018-Apr-06 02:20 UTC. Time now 2018-Apr-21 13:33 UTC.
Position N 29°34' W 090°31'.
Warning: this ship's position is 15 days out of date.

Length 210 m; draft 2.8 m.

Type: . MMSI: 367146780.

Date/timePositionNaut miles runAvg speedWind from/ knotsBaromVisibWave heightAir tempDewpointWater temp
2018-Apr-06 02:20N 29°34' W 090°31'2 4.4
2018-Apr-06 02:00N 29°34' W 090°33'2 4.3
2018-Apr-06 01:29N 29°35' W 090°35'2 4.6
2018-Apr-06 01:00N 29°35' W 090°38'2 4.6
2018-Apr-06 00:30N 29°36' W 090°40'2 4.2
2018-Apr-06 00:00N 29°37' W 090°42'2 4.2
2018-Apr-05 23:29N 29°34' W 090°43'2 4.5
2018-Apr-05 23:00N 29°33' W 090°45'1 1.2
2018-Apr-05 22:30N 29°33' W 090°45'0 0.1
2018-Apr-05 22:00N 29°33' W 090°45'2 4.5
2018-Apr-05 21:28N 29°32' W 090°48'123 4.0
2018-Apr-04 14:47N 29°56' W 093°07'1 5.3
2018-Apr-04 14:30N 29°56' W 093°08'2 4.8
2018-Apr-04 14:00N 29°57' W 093°11'3 5.4
2018-Apr-04 13:30N 29°59' W 093°13'2 4.7
2018-Apr-04 13:00N 30°01' W 093°14'2 4.1
2018-Apr-04 12:30N 30°03' W 093°16'2 3.2
2018-Apr-04 12:00N 30°04' W 093°16'1 2.9
2018-Apr-04 11:29N 30°05' W 093°18'1 1.6
2018-Apr-04 11:00N 30°06' W 093°18'0 0.2
2018-Apr-04 10:30N 30°06' W 093°18'1 1.6
2018-Apr-04 10:00N 30°06' W 093°19'3 5.2
2018-Apr-04 09:30N 30°04' W 093°21'2 4.5
2018-Apr-04 09:00N 30°04' W 093°24'3 5.4
2018-Apr-04 08:30N 30°04' W 093°27'3 5.1
2018-Apr-04 08:00N 30°04' W 093°30'2 4.7
2018-Apr-04 07:30N 30°04' W 093°32'3 4.5
2018-Apr-04 06:48N 30°04' W 093°36'2 6.1
2018-Apr-04 06:27N 30°04' W 093°39'3 6.5
2018-Apr-04 06:00N 30°03' W 093°42'2 5.0
2018-Apr-04 05:30N 30°02' W 093°44'2 4.8
2018-Apr-04 05:00N 30°00' W 093°46'3 5.1
2018-Apr-04 04:30N 29°59' W 093°49'3 5.6
2018-Apr-04 04:00N 29°58' W 093°51'3 5.7
2018-Apr-04 03:30N 29°55' W 093°53'3 5.6
2018-Apr-04 03:00N 29°53' W 093°55'3 6.5
2018-Apr-04 02:30N 29°50' W 093°57'3 5.5
2018-Apr-04 02:00N 29°49' W 093°60'2 4.3
2018-Apr-04 01:30N 29°47' W 094°01'1 2.5
2018-Apr-04 01:00N 29°46' W 094°03'3 5.7
2018-Apr-04 00:30N 29°44' W 094°05'3 5.6
2018-Apr-04 00:00N 29°43' W 094°08'3 5.5
2018-Apr-03 23:30N 29°41' W 094°10'2 3.2
2018-Apr-03 23:00N 29°41' W 094°12'1 1.5
2018-Apr-03 22:30N 29°40' W 094°13'2 4.5
2018-Apr-03 22:00N 29°39' W 094°15'3 6.1
2018-Apr-03 21:30N 29°38' W 094°18'3 6.1
2018-Apr-03 20:59N 29°37' W 094°21'3 5.2
2018-Apr-03 20:27N 29°36' W 094°24'1 2.9
2018-Apr-03 20:00N 29°34' W 094°25'4 5.6
2018-Apr-03 19:17N 29°32' W 094°29'3 6.0
2018-Apr-03 18:51N 29°31' W 094°31'1 3.5
2018-Apr-03 18:28N 29°30' W 094°33'3 5.6
2018-Apr-03 17:58N 29°29' W 094°36'12 4.9
2018-Apr-03 15:36N 29°23' W 094°47'1 5.4
2018-Apr-03 15:24N 29°22' W 094°48'2 4.2
2018-Apr-03 14:50N 29°20' W 094°50'3 6.0
2018-Apr-03 14:24N 29°19' W 094°52'2 5.5
2018-Apr-03 13:57N 29°17' W 094°54'2 5.4
2018-Apr-03 13:30N 29°17' W 094°57'3 0.7
2018-Apr-03 08:49N 29°15' W 095°00'0 0.0
2018-Apr-03 08:20N 29°15' W 095°00'0 0.0
2018-Apr-03 07:07N 29°15' W 095°00'0 0.0
2018-Apr-03 06:41N 29°15' W 095°00'2 0.8
2018-Apr-03 04:25N 29°14' W 095°02'2 4.6
2018-Apr-03 03:56N 29°12' W 095°03'3 5.5
2018-Apr-03 03:28N 29°11' W 095°06'4 3.6
2018-Apr-03 02:23N 29°12' W 095°10'1 3.5
2018-Apr-03 02:00N 29°12' W 095°11'2 0.1
2018-Apr-02 07:38N 29°14' W 095°13'0 0.0
2018-Apr-02 07:17N 29°14' W 095°13'0 0.0
2018-Apr-02 06:53N 29°14' W 095°13'0 0.0
2018-Apr-02 06:29N 29°14' W 095°13'0 0.0
2018-Apr-02 05:35N 29°14' W 095°13'0 0.0
2018-Apr-02 03:59N 29°14' W 095°13'0 0.0
2018-Apr-02 03:26N 29°14' W 095°13'0 0.0
2018-Apr-02 02:50N 29°14' W 095°13'0 0.0
2018-Apr-01 13:57N 29°15' W 095°13'1 0.7
2018-Apr-01 12:57N 29°14' W 095°13'2 4.8
2018-Apr-01 12:30N 29°12' W 095°11'18 1.7
2018-Apr-01 02:11N 29°19' W 094°52'1 5.6
2018-Apr-01 02:00N 29°19' W 094°51'4 7.7
2018-Apr-01 01:30N 29°22' W 094°48'11 8.4
2018-Apr-01 00:10N 29°32' W 094°54'1 9.2
2018-Apr-01 00:00N 29°33' W 094°55'5 9.3
2018-Mar-31 23:30N 29°37' W 094°57'4 8.0
2018-Mar-31 23:00N 29°41' W 094°59'4 7.3
2018-Mar-31 22:30N 29°44' W 095°02'4 7.0
2018-Mar-31 22:00N 29°46' W 095°05'1 0.3
2018-Mar-31 19:30N 29°46' W 095°05'0 0.4
2018-Mar-31 18:59N 29°46' W 095°05'2 1.7
2018-Mar-31 17:59N 29°47' W 095°04'2 3.3
2018-Mar-31 17:30N 29°46' W 095°05'0 0.2
2018-Mar-31 15:25N 29°46' W 095°06'0 0.0
2018-Mar-31 14:54N 29°46' W 095°06'0 0.0
2018-Mar-31 14:30N 29°46' W 095°06'0 0.0
2018-Mar-31 13:38N 29°46' W 095°06'0 0.0
2018-Mar-31 13:00N 29°46' W 095°06'0 0.3
2018-Mar-31 12:08N 29°46' W 095°05'2 0.7
2018-Mar-31 09:24N 29°47' W 095°04'2 3.5
2018-Mar-31 08:54N 29°46' W 095°05'0 0.7
2018-Mar-31 08:30N 29°46' W 095°05'0 0.0
2018-Mar-30 20:24N 29°46' W 095°05'3 4.9
2018-Mar-30 19:53N 29°44' W 095°03'2 5.9
2018-Mar-30 19:29N 29°43' W 095°01'3 5.8
2018-Mar-30 19:00N 29°41' W 094°59'3 6.5
2018-Mar-30 18:30N 29°38' W 094°58'3 6.5
2018-Mar-30 18:00N 29°35' W 094°56'4 7.9
2018-Mar-30 17:30N 29°32' W 094°53'4 7.5
2018-Mar-30 17:00N 29°28' W 094°51'4 7.8
2018-Mar-30 16:28N 29°24' W 094°49'3 5.4
2018-Mar-30 15:57N 29°22' W 094°47'3 4.9
2018-Mar-30 15:20N 29°24' W 094°44'2 3.9
2018-Mar-30 14:49N 29°26' W 094°43'3 7.7
2018-Mar-30 14:29N 29°27' W 094°40'5 7.7
2018-Mar-30 13:52N 29°29' W 094°35'3 7.5
2018-Mar-30 13:28N 29°30' W 094°32'3 6.5
2018-Mar-30 13:00N 29°32' W 094°29'2 4.8
2018-Mar-30 12:30N 29°34' W 094°28'3 6.2
2018-Mar-30 12:00N 29°36' W 094°25'5 7.2
2018-Mar-30 11:21N 29°37' W 094°20'3 7.1
2018-Mar-30 10:59N 29°39' W 094°17'3 6.9
2018-Mar-30 10:30N 29°40' W 094°14'4 7.2
2018-Mar-30 09:59N 29°41' W 094°10'3 5.5
2018-Mar-30 09:30N 29°43' W 094°07'4 7.2
2018-Mar-30 09:00N 29°45' W 094°04'4 7.3
2018-Mar-30 08:30N 29°48' W 094°01'3 6.4
2018-Mar-30 08:00N 29°49' W 093°58'3 5.3
2018-Mar-30 07:30N 29°52' W 093°56'4 7.3
2018-Mar-30 07:00N 29°55' W 093°54'4 7.7
2018-Mar-30 06:30N 29°58' W 093°51'3 6.6
2018-Mar-30 06:00N 29°59' W 093°48'4 7.8
2018-Mar-30 05:30N 30°02' W 093°44'3 6.4
2018-Mar-30 05:00N 30°04' W 093°41'3 6.0
2018-Mar-30 04:30N 30°04' W 093°38'3 5.7
2018-Mar-30 03:57N 30°04' W 093°34'2 3.8
2018-Mar-30 03:30N 30°04' W 093°32'3 5.8
2018-Mar-30 03:00N 30°04' W 093°29'3 5.8
2018-Mar-30 02:30N 30°04' W 093°25'3 5.5
2018-Mar-30 02:00N 30°04' W 093°22'2 4.1
2018-Mar-30 01:30N 30°05' W 093°20'2 3.8
2018-Mar-30 01:00N 30°06' W 093°19'0 1.0
2018-Mar-30 00:30N 30°06' W 093°18'0 0.0
2018-Mar-29 23:59N 30°06' W 093°18'1 1.2
2018-Mar-29 23:30N 30°06' W 093°18'1 1.4
2018-Mar-29 22:58N 30°05' W 093°17'1 1.7
2018-Mar-29 22:29N 30°05' W 093°17'0 0.7
2018-Mar-29 21:59N 30°04' W 093°16'1 3.0
2018-Mar-29 21:30N 30°03' W 093°16'3 5.6
2018-Mar-29 21:00N 30°01' W 093°14'3 6.2
2018-Mar-29 20:30N 29°58' W 093°12'3 6.3
2018-Mar-29 20:00N 29°56' W 093°09'3 6.2
2018-Mar-29 19:30N 29°56' W 093°06'3 5.8
2018-Mar-29 18:57N 29°56' W 093°02'37 4.2
2018-Mar-29 10:04N 29°50' W 092°20'1 6.5
2018-Mar-29 09:53N 29°50' W 092°18'2 3.9
2018-Mar-29 09:29N 29°49' W 092°17'3 6.3
2018-Mar-29 09:00N 29°48' W 092°14'2 3.0
2018-Mar-29 08:30N 29°47' W 092°12'0 0.5
2018-Mar-29 08:00N 29°47' W 092°12'1 1.8
2018-Mar-29 07:30N 29°47' W 092°11'0 0.7
2018-Mar-29 06:59N 29°47' W 092°11'0 0.0
2018-Mar-29 06:29N 29°47' W 092°11'1 1.5
2018-Mar-29 06:00N 29°47' W 092°10'71 3.1
2018-Mar-28 07:28N 29°32' W 090°50'3 6.7
2018-Mar-28 07:00N 29°32' W 090°46'3 5.6
2018-Mar-28 06:30N 29°34' W 090°44'2 3.6
2018-Mar-28 06:00N 29°35' W 090°43'2 3.4
2018-Mar-28 05:30N 29°37' W 090°42'2 3.3
2018-Mar-28 04:59N 29°36' W 090°40'0 0.7
2018-Mar-28 04:30N 29°36' W 090°40'2 4.9
2018-Mar-28 04:01N 29°35' W 090°37'3 5.5
2018-Mar-28 03:30N 29°34' W 090°34'  
Track history (hours):
 
Tides and Currents Weather Stations Pressure Air Temp Water Temp Dewpoint Dewpoint Depression Visibility Wind Speed Wind Dir Waves Ship Positions

Robert G. Stone, Jr.

Owner: Kirby Inland Marine, LP, Houston, TX. More information available from US FCC via Universal Licensing System and Coast Guard Vessel Documentation Center.

Last reported at 2018-Apr-06 02:20 UTC. Time now 2018-Apr-21 13:33 UTC.
Position N 29°34' W 090°31'.
Warning: this ship's position is 15 days out of date.

Length 210 m; draft 2.8 m.

Type: . MMSI: 367146780.

Date/timePositionNaut miles runAvg speedWind from/ knotsBaromVisibWave heightAir tempDewpointWater temp
2018-Apr-06 02:20N 29°34' W 090°31'2 4.4
2018-Apr-06 02:00N 29°34' W 090°33'2 4.3
2018-Apr-06 01:29N 29°35' W 090°35'2 4.6
2018-Apr-06 01:00N 29°35' W 090°38'2 4.6
2018-Apr-06 00:30N 29°36' W 090°40'2 4.2
2018-Apr-06 00:00N 29°37' W 090°42'2 4.2
2018-Apr-05 23:29N 29°34' W 090°43'2 4.5
2018-Apr-05 23:00N 29°33' W 090°45'1 1.2
2018-Apr-05 22:30N 29°33' W 090°45'0 0.1
2018-Apr-05 22:00N 29°33' W 090°45'2 4.5
2018-Apr-05 21:28N 29°32' W 090°48'123 4.0
2018-Apr-04 14:47N 29°56' W 093°07'1 5.3
2018-Apr-04 14:30N 29°56' W 093°08'2 4.8
2018-Apr-04 14:00N 29°57' W 093°11'3 5.4
2018-Apr-04 13:30N 29°59' W 093°13'2 4.7
2018-Apr-04 13:00N 30°01' W 093°14'2 4.1
2018-Apr-04 12:30N 30°03' W 093°16'2 3.2
2018-Apr-04 12:00N 30°04' W 093°16'1 2.9
2018-Apr-04 11:29N 30°05' W 093°18'1 1.6
2018-Apr-04 11:00N 30°06' W 093°18'0 0.2
2018-Apr-04 10:30N 30°06' W 093°18'1 1.6
2018-Apr-04 10:00N 30°06' W 093°19'3 5.2
2018-Apr-04 09:30N 30°04' W 093°21'2 4.5
2018-Apr-04 09:00N 30°04' W 093°24'3 5.4
2018-Apr-04 08:30N 30°04' W 093°27'3 5.1
2018-Apr-04 08:00N 30°04' W 093°30'2 4.7
2018-Apr-04 07:30N 30°04' W 093°32'3 4.5
2018-Apr-04 06:48N 30°04' W 093°36'2 6.1
2018-Apr-04 06:27N 30°04' W 093°39'3 6.5
2018-Apr-04 06:00N 30°03' W 093°42'2 5.0
2018-Apr-04 05:30N 30°02' W 093°44'2 4.8
2018-Apr-04 05:00N 30°00' W 093°46'3 5.1
2018-Apr-04 04:30N 29°59' W 093°49'3 5.6
2018-Apr-04 04:00N 29°58' W 093°51'3 5.7
2018-Apr-04 03:30N 29°55' W 093°53'3 5.6
2018-Apr-04 03:00N 29°53' W 093°55'3 6.5
2018-Apr-04 02:30N 29°50' W 093°57'3 5.5
2018-Apr-04 02:00N 29°49' W 093°60'2 4.3
2018-Apr-04 01:30N 29°47' W 094°01'1 2.5
2018-Apr-04 01:00N 29°46' W 094°03'3 5.7
2018-Apr-04 00:30N 29°44' W 094°05'3 5.6
2018-Apr-04 00:00N 29°43' W 094°08'3 5.5
2018-Apr-03 23:30N 29°41' W 094°10'2 3.2
2018-Apr-03 23:00N 29°41' W 094°12'1 1.5
2018-Apr-03 22:30N 29°40' W 094°13'2 4.5
2018-Apr-03 22:00N 29°39' W 094°15'3 6.1
2018-Apr-03 21:30N 29°38' W 094°18'3 6.1
2018-Apr-03 20:59N 29°37' W 094°21'3 5.2
2018-Apr-03 20:27N 29°36' W 094°24'1 2.9
2018-Apr-03 20:00N 29°34' W 094°25'4 5.6
2018-Apr-03 19:17N 29°32' W 094°29'3 6.0
2018-Apr-03 18:51N 29°31' W 094°31'1 3.5
2018-Apr-03 18:28N 29°30' W 094°33'3 5.6
2018-Apr-03 17:58N 29°29' W 094°36'12 4.9
2018-Apr-03 15:36N 29°23' W 094°47'1 5.4
2018-Apr-03 15:24N 29°22' W 094°48'2 4.2
2018-Apr-03 14:50N 29°20' W 094°50'3 6.0
2018-Apr-03 14:24N 29°19' W 094°52'2 5.5
2018-Apr-03 13:57N 29°17' W 094°54'2 5.4
2018-Apr-03 13:30N 29°17' W 094°57'3 0.7
2018-Apr-03 08:49N 29°15' W 095°00'0 0.0
2018-Apr-03 08:20N 29°15' W 095°00'0 0.0
2018-Apr-03 07:07N 29°15' W 095°00'0 0.0
2018-Apr-03 06:41N 29°15' W 095°00'2 0.8
2018-Apr-03 04:25N 29°14' W 095°02'2 4.6
2018-Apr-03 03:56N 29°12' W 095°03'3 5.5
2018-Apr-03 03:28N 29°11' W 095°06'4 3.6
2018-Apr-03 02:23N 29°12' W 095°10'1 3.5
2018-Apr-03 02:00N 29°12' W 095°11'2 0.1
2018-Apr-02 07:38N 29°14' W 095°13'0 0.0
2018-Apr-02 07:17N 29°14' W 095°13'0 0.0
2018-Apr-02 06:53N 29°14' W 095°13'0 0.0
2018-Apr-02 06:29N 29°14' W 095°13'0 0.0
2018-Apr-02 05:35N 29°14' W 095°13'0 0.0
2018-Apr-02 03:59N 29°14' W 095°13'0 0.0
2018-Apr-02 03:26N 29°14' W 095°13'0 0.0
2018-Apr-02 02:50N 29°14' W 095°13'0 0.0
2018-Apr-01 13:57N 29°15' W 095°13'1 0.7
2018-Apr-01 12:57N 29°14' W 095°13'2 4.8
2018-Apr-01 12:30N 29°12' W 095°11'18 1.7
2018-Apr-01 02:11N 29°19' W 094°52'1 5.6
2018-Apr-01 02:00N 29°19' W 094°51'4 7.7
2018-Apr-01 01:30N 29°22' W 094°48'11 8.4
2018-Apr-01 00:10N 29°32' W 094°54'1 9.2
2018-Apr-01 00:00N 29°33' W 094°55'5 9.3
2018-Mar-31 23:30N 29°37' W 094°57'4 8.0
2018-Mar-31 23:00N 29°41' W 094°59'4 7.3
2018-Mar-31 22:30N 29°44' W 095°02'4 7.0
2018-Mar-31 22:00N 29°46' W 095°05'1 0.3
2018-Mar-31 19:30N 29°46' W 095°05'0 0.4
2018-Mar-31 18:59N 29°46' W 095°05'2 1.7
2018-Mar-31 17:59N 29°47' W 095°04'2 3.3
2018-Mar-31 17:30N 29°46' W 095°05'0 0.2
2018-Mar-31 15:25N 29°46' W 095°06'0 0.0
2018-Mar-31 14:54N 29°46' W 095°06'0 0.0
2018-Mar-31 14:30N 29°46' W 095°06'0 0.0
2018-Mar-31 13:38N 29°46' W 095°06'0 0.0
2018-Mar-31 13:00N 29°46' W 095°06'0 0.3
2018-Mar-31 12:08N 29°46' W 095°05'2 0.7
2018-Mar-31 09:24N 29°47' W 095°04'2 3.5
2018-Mar-31 08:54N 29°46' W 095°05'0 0.7
2018-Mar-31 08:30N 29°46' W 095°05'0 0.0
2018-Mar-30 20:24N 29°46' W 095°05'3 4.9
2018-Mar-30 19:53N 29°44' W 095°03'2 5.9
2018-Mar-30 19:29N 29°43' W 095°01'3 5.8
2018-Mar-30 19:00N 29°41' W 094°59'3 6.5
2018-Mar-30 18:30N 29°38' W 094°58'3 6.5
2018-Mar-30 18:00N 29°35' W 094°56'4 7.9
2018-Mar-30 17:30N 29°32' W 094°53'4 7.5
2018-Mar-30 17:00N 29°28' W 094°51'4 7.8
2018-Mar-30 16:28N 29°24' W 094°49'3 5.4
2018-Mar-30 15:57N 29°22' W 094°47'3 4.9
2018-Mar-30 15:20N 29°24' W 094°44'2 3.9
2018-Mar-30 14:49N 29°26' W 094°43'3 7.7
2018-Mar-30 14:29N 29°27' W 094°40'5 7.7
2018-Mar-30 13:52N 29°29' W 094°35'3 7.5
2018-Mar-30 13:28N 29°30' W 094°32'3 6.5
2018-Mar-30 13:00N 29°32' W 094°29'2 4.8
2018-Mar-30 12:30N 29°34' W 094°28'3 6.2
2018-Mar-30 12:00N 29°36' W 094°25'5 7.2
2018-Mar-30 11:21N 29°37' W 094°20'3 7.1
2018-Mar-30 10:59N 29°39' W 094°17'3 6.9
2018-Mar-30 10:30N 29°40' W 094°14'4 7.2
2018-Mar-30 09:59N 29°41' W 094°10'3 5.5
2018-Mar-30 09:30N 29°43' W 094°07'4 7.2
2018-Mar-30 09:00N 29°45' W 094°04'4 7.3
2018-Mar-30 08:30N 29°48' W 094°01'3 6.4
2018-Mar-30 08:00N 29°49' W 093°58'3 5.3
2018-Mar-30 07:30N 29°52' W 093°56'4 7.3
2018-Mar-30 07:00N 29°55' W 093°54'4 7.7
2018-Mar-30 06:30N 29°58' W 093°51'3 6.6
2018-Mar-30 06:00N 29°59' W 093°48'4 7.8
2018-Mar-30 05:30N 30°02' W 093°44'3 6.4
2018-Mar-30 05:00N 30°04' W 093°41'3 6.0
2018-Mar-30 04:30N 30°04' W 093°38'3 5.7
2018-Mar-30 03:57N 30°04' W 093°34'2 3.8
2018-Mar-30 03:30N 30°04' W 093°32'3 5.8
2018-Mar-30 03:00N 30°04' W 093°29'3 5.8
2018-Mar-30 02:30N 30°04' W 093°25'3 5.5
2018-Mar-30 02:00N 30°04' W 093°22'2 4.1
2018-Mar-30 01:30N 30°05' W 093°20'2 3.8
2018-Mar-30 01:00N 30°06' W 093°19'0 1.0
2018-Mar-30 00:30N 30°06' W 093°18'0 0.0
2018-Mar-29 23:59N 30°06' W 093°18'1 1.2
2018-Mar-29 23:30N 30°06' W 093°18'1 1.4
2018-Mar-29 22:58N 30°05' W 093°17'1 1.7
2018-Mar-29 22:29N 30°05' W 093°17'0 0.7
2018-Mar-29 21:59N 30°04' W 093°16'1 3.0
2018-Mar-29 21:30N 30°03' W 093°16'3 5.6
2018-Mar-29 21:00N 30°01' W 093°14'3 6.2
2018-Mar-29 20:30N 29°58' W 093°12'3 6.3
2018-Mar-29 20:00N 29°56' W 093°09'3 6.2
2018-Mar-29 19:30N 29°56' W 093°06'3 5.8
2018-Mar-29 18:57N 29°56' W 093°02'37 4.2
2018-Mar-29 10:04N 29°50' W 092°20'1 6.5
2018-Mar-29 09:53N 29°50' W 092°18'2 3.9
2018-Mar-29 09:29N 29°49' W 092°17'3 6.3
2018-Mar-29 09:00N 29°48' W 092°14'2 3.0
2018-Mar-29 08:30N 29°47' W 092°12'0 0.5
2018-Mar-29 08:00N 29°47' W 092°12'1 1.8
2018-Mar-29 07:30N 29°47' W 092°11'0 0.7
2018-Mar-29 06:59N 29°47' W 092°11'0 0.0
2018-Mar-29 06:29N 29°47' W 092°11'1 1.5
2018-Mar-29 06:00N 29°47' W 092°10'71 3.1
2018-Mar-28 07:28N 29°32' W 090°50'3 6.7
2018-Mar-28 07:00N 29°32' W 090°46'3 5.6
2018-Mar-28 06:30N 29°34' W 090°44'2 3.6
2018-Mar-28 06:00N 29°35' W 090°43'2 3.4
2018-Mar-28 05:30N 29°37' W 090°42'2 3.3
2018-Mar-28 04:59N 29°36' W 090°40'0 0.7
2018-Mar-28 04:30N 29°36' W 090°40'2 4.9
2018-Mar-28 04:01N 29°35' W 090°37'3 5.5
2018-Mar-28 03:30N 29°34' W 090°34'  

Dump ship's entire track history